createdAt,value
2022-09-06T00:00:11.544Z,101831.53
2022-09-06T00:02:42.728Z,101835.53
2022-09-06T00:05:11.460Z,101833.94
2022-09-06T00:07:39.235Z,101833.94
2022-09-06T00:10:07.001Z,101831.56
2022-09-06T00:12:34.324Z,101821.81
2022-09-06T00:15:01.608Z,101830.78
2022-09-06T00:17:28.778Z,101824.97
2022-09-06T00:19:55.906Z,101823.97
2022-09-06T00:22:23.175Z,101816.56
2022-09-06T00:24:50.437Z,101830.53
2022-09-06T00:27:17.483Z,101826.56
2022-09-06T00:29:44.707Z,101825.81
2022-09-06T00:32:11.797Z,101820.28
2022-09-06T00:34:38.942Z,101823.41
2022-09-06T00:37:06.071Z,101815.78
2022-09-06T00:39:33.189Z,101821.31
2022-09-06T00:42:00.295Z,101819.47
2022-09-06T00:44:27.412Z,101812.41
2022-09-06T00:46:55.481Z,101805.28
2022-09-06T00:49:32.844Z,101800.81
2022-09-06T00:52:05.063Z,101811.06
2022-09-06T00:54:32.635Z,101806.34
2022-09-06T00:57:00.336Z,101818.44
2022-09-06T00:59:31.187Z,101801.84
2022-09-06T01:01:59.082Z,101808.19
2022-09-06T01:04:27.127Z,101813.47
2022-09-06T01:06:57.162Z,101810.06
2022-09-06T01:09:30.390Z,101811.66
2022-09-06T01:12:19.858Z,101815.63
2022-09-06T01:15:13.211Z,101818.25
2022-09-06T01:18:08.026Z,101820.66
2022-09-06T01:20:44.084Z,101810.91
2022-09-06T01:23:30.105Z,101814.06
2022-09-06T01:26:09.412Z,101805.91
2022-09-06T01:28:48.074Z,101809.31
2022-09-06T01:31:24.672Z,101807.72
2022-09-06T01:33:54.822Z,101810.88
2022-09-06T01:36:26.940Z,101821.66
2022-09-06T01:38:54.066Z,101819.56
2022-09-06T01:41:21.160Z,101816.94
2022-09-06T01:43:51.883Z,101811.97
2022-09-06T01:46:44.800Z,101803.53
2022-09-06T01:49:33.105Z,101807.00
2022-09-06T01:52:06.460Z,101810.41
2022-09-06T01:54:39.644Z,101806.72
2022-09-06T01:57:32.111Z,101805.13
2022-09-06T02:00:15.840Z,101803.81
2022-09-06T02:03:06.350Z,101807.25
2022-09-06T02:05:38.296Z,101807.25
2022-09-06T02:08:11.079Z,101803.28
2022-09-06T02:10:45.348Z,101801.47
2022-09-06T02:13:15.552Z,101811.97
2022-09-06T02:15:47.772Z,101809.63
2022-09-06T02:18:21.738Z,101804.91
2022-09-06T02:20:55.348Z,101804.09
2022-09-06T02:23:26.407Z,101804.88
2022-09-06T02:25:57.672Z,101808.56
2022-09-06T02:28:25.423Z,101806.47
2022-09-06T02:30:59.671Z,101814.63
2022-09-06T02:33:31.151Z,101803.03
2022-09-06T02:36:05.846Z,101804.84
2022-09-06T02:38:35.831Z,101813.53
2022-09-06T02:41:04.837Z,101814.09
2022-09-06T02:43:31.949Z,101815.94
2022-09-06T02:45:59.082Z,101823.28
2022-09-06T02:48:26.416Z,101813.81
2022-09-06T02:50:53.649Z,101822.50
2022-09-06T02:53:20.887Z,101826.47
2022-09-06T02:55:48.910Z,101829.38
2022-09-06T02:58:16.304Z,101828.81
2022-09-06T03:00:44.260Z,101818.56
2022-09-06T03:03:11.487Z,101820.16
2022-09-06T03:05:38.649Z,101818.84
2022-09-06T03:08:06.314Z,101822.00
2022-09-06T03:10:33.644Z,101818.31
2022-09-06T03:13:00.846Z,101824.63
2022-09-06T03:15:28.159Z,101818.03
2022-09-06T03:17:59.772Z,101818.56
2022-09-06T03:20:27.016Z,101822.00
2022-09-06T03:22:54.092Z,101831.19
2022-09-06T03:25:21.875Z,101824.63
2022-09-06T03:27:49.035Z,101821.19
2022-09-06T03:30:16.215Z,101824.63
2022-09-06T03:32:43.446Z,101818.31
2022-09-06T03:35:10.921Z,101823.06
2022-09-06T03:37:38.028Z,101827.00
2022-09-06T03:40:06.548Z,101824.38
2022-09-06T03:42:33.790Z,101820.94
2022-09-06T03:45:00.901Z,101825.97
2022-09-06T03:47:28.054Z,101816.25
2022-09-06T03:49:55.191Z,101820.69
2022-09-06T03:52:22.313Z,101818.03
2022-09-06T03:54:49.422Z,101819.34
2022-09-06T03:57:16.636Z,101822.00
2022-09-06T03:59:43.678Z,101821.22
2022-09-06T04:02:10.819Z,101824.63
2022-09-06T04:04:37.983Z,101819.91
2022-09-06T04:07:05.269Z,101829.88
2022-09-06T04:09:32.605Z,101838.34
2022-09-06T04:11:59.760Z,101836.19
2022-09-06T04:14:26.868Z,101831.50
2022-09-06T04:16:54.068Z,101826.47
2022-09-06T04:19:21.335Z,101838.31
2022-09-06T04:21:48.732Z,101835.16
2022-09-06T04:24:15.820Z,101835.69
2022-09-06T04:26:43.008Z,101839.94
2022-09-06T04:29:10.111Z,101843.09
2022-09-06T04:31:37.330Z,101841.47
2022-09-06T04:34:04.595Z,101840.44
2022-09-06T04:36:31.819Z,101842.81
2022-09-06T04:38:59.014Z,101850.97
2022-09-06T04:41:26.216Z,101850.16
2022-09-06T04:43:53.415Z,101852.56
2022-09-06T04:46:27.344Z,101849.66
2022-09-06T04:48:56.262Z,101845.69
2022-09-06T04:51:24.707Z,101851.47
2022-09-06T04:53:52.653Z,101855.72
2022-09-06T04:56:24.408Z,101859.38
2022-09-06T04:58:53.202Z,101853.81
2022-09-06T05:01:20.729Z,101856.78
2022-09-06T05:03:48.047Z,101846.75
2022-09-06T05:06:25.307Z,101866.25
2022-09-06T05:08:52.855Z,101854.41
2022-09-06T05:11:20.445Z,101856.22
2022-09-06T05:13:47.937Z,101855.97
2022-09-06T05:16:15.239Z,101867.81
2022-09-06T05:18:42.720Z,101859.38
2022-09-06T05:21:10.378Z,101856.22
2022-09-06T05:23:37.618Z,101859.41
2022-09-06T05:26:05.230Z,101856.75
2022-09-06T05:28:32.417Z,101868.06
2022-09-06T05:31:22.831Z,101859.66
2022-09-06T05:33:49.953Z,101870.72
2022-09-06T05:36:17.121Z,101854.66
2022-09-06T05:38:44.299Z,101861.25
2022-09-06T05:41:11.539Z,101859.91
2022-09-06T05:43:38.785Z,101869.13
2022-09-06T05:46:06.056Z,101858.84
2022-09-06T05:48:36.819Z,101869.63
2022-09-06T05:51:13.347Z,101867.25
2022-09-06T05:53:43.232Z,101862.03
2022-09-06T05:56:12.039Z,101866.75
2022-09-06T05:58:39.284Z,101867.25
2022-09-06T06:01:17.898Z,101867.25
2022-09-06T06:03:57.135Z,101867.78
2022-09-06T06:06:26.060Z,101869.38
2022-09-06T06:08:53.393Z,101866.47
2022-09-06T06:11:21.094Z,101864.88
2022-09-06T06:13:48.603Z,101857.00
2022-09-06T06:16:18.201Z,101869.09
2022-09-06T06:18:49.977Z,101873.06
2022-09-06T06:21:23.219Z,101871.47
2022-09-06T06:24:08.660Z,101869.91
2022-09-06T06:26:36.976Z,101880.97
2022-09-06T06:29:08.113Z,101888.59
2022-09-06T06:31:37.018Z,101885.94
2022-09-06T06:34:04.723Z,101886.44
2022-09-06T06:36:34.033Z,101885.41
2022-09-06T06:39:03.123Z,101880.94
2022-09-06T06:41:32.145Z,101885.38
2022-09-06T06:44:01.737Z,101886.69
2022-09-06T06:46:31.624Z,101882.75
2022-09-06T06:48:59.089Z,101892.22
2022-09-06T06:51:29.633Z,101889.88
2022-09-06T06:53:57.391Z,101888.56
2022-09-06T06:56:31.080Z,101892.22
2022-09-06T06:59:04.214Z,101903.03
2022-09-06T07:01:33.247Z,101895.63
2022-09-06T07:04:00.656Z,101906.97
2022-09-06T07:09:18.395Z,101913.06
2022-09-06T07:11:46.894Z,101904.34
2022-09-06T07:14:14.110Z,101908.06
2022-09-06T07:16:41.293Z,101902.81
2022-09-06T07:19:09.297Z,101909.41
2022-09-06T07:21:59.333Z,101910.72
2022-09-06T07:24:27.492Z,101907.03
2022-09-06T07:29:41.649Z,101918.59
2022-09-06T07:34:39.669Z,101906.50
2022-09-06T07:37:06.754Z,101910.72
2022-09-06T07:39:33.959Z,101902.03
2022-09-06T07:42:01.674Z,101903.09
2022-09-06T07:44:29.470Z,101905.19
2022-09-06T07:55:18.031Z,101904.13
2022-09-06T07:57:45.180Z,101907.03
2022-09-06T08:00:12.744Z,101909.13
2022-09-06T08:02:41.009Z,101899.91
2022-09-06T08:10:43.347Z,101894.38
2022-09-06T08:13:10.546Z,101904.16
2022-09-06T08:15:41.540Z,101876.75
2022-09-06T08:18:08.847Z,101885.16
2022-09-06T08:20:36.009Z,101901.19
2022-09-06T08:23:03.528Z,101892.00
2022-09-06T08:25:30.871Z,101888.06
2022-09-06T08:27:58.076Z,101890.69
2022-09-06T08:30:25.350Z,101882.22
2022-09-06T08:32:52.455Z,101886.41
2022-09-06T08:35:19.564Z,101872.13
2022-09-06T08:37:46.795Z,101879.72
2022-09-06T08:40:20.379Z,101876.03
2022-09-06T08:42:48.680Z,101866.75
2022-09-06T08:45:21.864Z,101875.41
2022-09-06T08:47:50.893Z,101869.53
2022-09-06T08:50:19.199Z,101872.13
2022-09-06T08:53:24.741Z,101867.75
2022-09-06T08:56:13.513Z,101868.84
2022-09-06T08:59:20.520Z,101866.00
2022-09-06T09:02:09.265Z,101867.13
2022-09-06T09:04:39.976Z,101871.38
2022-09-06T09:07:30.288Z,101866.69
2022-09-06T09:09:59.857Z,101861.69
2022-09-06T09:12:30.833Z,101862.31
2022-09-06T09:15:05.656Z,101862.31
2022-09-06T09:17:33.143Z,101860.44
2022-09-06T09:20:00.271Z,101844.28
2022-09-06T09:22:28.059Z,101842.84
2022-09-06T09:24:59.265Z,101836.91
2022-09-06T09:27:28.886Z,101829.88
2022-09-06T09:32:46.000Z,101808.72
2022-09-06T09:35:33.570Z,101810.13
2022-09-06T09:38:08.033Z,101807.34
2022-09-06T09:40:52.573Z,101805.56
2022-09-06T09:43:22.742Z,101797.53
2022-09-06T09:46:21.138Z,101808.13
2022-09-06T09:49:02.703Z,101809.94
2022-09-06T09:51:31.753Z,101799.09
2022-09-06T09:54:08.962Z,101800.19
2022-09-06T09:56:53.015Z,101798.72
2022-09-06T09:59:28.071Z,101807.66
2022-09-06T10:02:01.594Z,101802.44
2022-09-06T10:04:49.789Z,101803.53
2022-09-06T10:07:25.425Z,101794.50
2022-09-06T10:10:07.822Z,101797.81
2022-09-06T10:12:40.779Z,101795.31
2022-09-06T10:15:10.639Z,101797.66
2022-09-06T10:17:51.273Z,101790.25
2022-09-06T10:20:19.141Z,101796.13
2022-09-06T10:22:56.785Z,101788.97
2022-09-06T10:25:49.059Z,101785.97
2022-09-06T10:28:31.800Z,101788.41
2022-09-06T10:31:36.607Z,101783.78
2022-09-06T10:34:42.309Z,101776.34
2022-09-06T10:37:31.343Z,101776.69
2022-09-06T10:40:10.199Z,101766.31
2022-09-06T10:42:46.476Z,101766.19
2022-09-06T10:45:31.533Z,101767.75
2022-09-06T10:48:05.284Z,101765.72
2022-09-06T10:50:54.190Z,101766.88
2022-09-06T10:53:40.113Z,101769.06
2022-09-06T10:56:29.230Z,101767.50
2022-09-06T11:02:00.803Z,101758.34
2022-09-06T11:07:30.526Z,101750.84
2022-09-06T11:10:07.940Z,101748.94
2022-09-06T11:12:44.593Z,101739.16
2022-09-06T11:15:14.422Z,101739.03
2022-09-06T11:17:41.531Z,101743.28
2022-09-06T11:20:21.655Z,101741.50
2022-09-06T11:23:14.363Z,101743.47
2022-09-06T11:26:06.477Z,101747.06
2022-09-06T11:29:01.022Z,101736.53
2022-09-06T11:34:27.305Z,101730.03
2022-09-06T11:37:01.956Z,101732.09
2022-09-06T11:43:03.182Z,101720.25
2022-09-06T11:45:46.226Z,101717.38
2022-09-06T11:48:26.665Z,101719.72
2022-09-06T11:50:53.926Z,101714.50
2022-09-06T11:53:23.976Z,101704.63
2022-09-06T11:56:11.051Z,101708.63
2022-09-06T11:59:04.273Z,101705.63
2022-09-06T12:01:31.423Z,101695.22
2022-09-06T12:04:07.051Z,101694.31
2022-09-06T12:06:41.406Z,101688.34
2022-09-06T12:09:31.875Z,101699.38
2022-09-06T12:12:00.876Z,101689.69
2022-09-06T12:14:46.970Z,101681.25
2022-09-06T12:17:14.091Z,101678.78
2022-09-06T12:19:47.897Z,101680.59
2022-09-06T12:22:47.939Z,101676.69
2022-09-06T12:25:36.675Z,101674.47
2022-09-06T12:28:20.717Z,101665.38
2022-09-06T12:30:48.808Z,101662.66
2022-09-06T12:33:38.216Z,101663.88
2022-09-06T12:36:19.220Z,101660.97
2022-09-06T12:38:55.871Z,101662.72
2022-09-06T12:41:24.105Z,101663.75
2022-09-06T12:43:51.640Z,101658.84
2022-09-06T12:46:19.234Z,101654.09
2022-09-06T12:49:00.591Z,101653.69
2022-09-06T12:51:28.272Z,101641.28
2022-09-06T12:54:16.923Z,101647.34
2022-09-06T12:56:44.287Z,101621.84
2022-09-06T12:59:23.570Z,101630.44
2022-09-06T13:02:00.739Z,101627.28
2022-09-06T13:04:42.443Z,101621.44
2022-09-06T13:07:14.714Z,101633.25
2022-09-06T13:09:46.684Z,101629.56
2022-09-06T13:12:27.980Z,101617.50
2022-09-06T13:15:02.523Z,101621.06
2022-09-06T13:17:31.119Z,101616.59
2022-09-06T13:19:58.466Z,101614.88
2022-09-06T13:23:09.274Z,101605.84
2022-09-06T13:25:50.462Z,101604.31
2022-09-06T13:28:24.938Z,101598.28
2022-09-06T13:31:08.304Z,101605.09
2022-09-06T13:33:37.943Z,101595.38
2022-09-06T13:36:12.636Z,101597.31
2022-09-06T13:38:42.298Z,101589.75
2022-09-06T13:41:42.072Z,101590.75
2022-09-06T13:44:15.317Z,101592.09
2022-09-06T13:46:42.467Z,101591.13
2022-09-06T13:49:09.733Z,101578.25
2022-09-06T13:51:39.020Z,101585.66
2022-09-06T13:54:11.803Z,101580.97
2022-09-06T13:56:42.772Z,101583.28
2022-09-06T13:59:11.057Z,101577.41
2022-09-06T14:01:41.379Z,101580.56
2022-09-06T14:04:11.507Z,101574.28
2022-09-06T14:06:39.056Z,101584.44
2022-09-06T14:09:07.985Z,101580.19
2022-09-06T14:11:54.875Z,101575.28
2022-09-06T14:14:22.303Z,101576.06
2022-09-06T14:16:49.575Z,101566.13
2022-09-06T14:19:16.883Z,101555.19
2022-09-06T14:21:44.177Z,101561.22
2022-09-06T14:24:11.404Z,101550.84
2022-09-06T14:26:38.959Z,101547.91
2022-09-06T14:29:06.437Z,101548.09
2022-09-06T14:31:34.033Z,101542.63
2022-09-06T14:34:02.523Z,101555.97
2022-09-06T14:36:32.271Z,101547.38
2022-09-06T14:39:00.477Z,101545.03
2022-09-06T14:41:28.206Z,101543.84
2022-09-06T14:43:57.816Z,101543.06
2022-09-06T14:46:27.071Z,101541.09
2022-09-06T14:49:07.421Z,101544.38
2022-09-06T14:51:35.838Z,101537.97
2022-09-06T14:54:16.007Z,101533.91
2022-09-06T14:56:44.266Z,101529.97
2022-09-06T14:59:12.403Z,101527.44
2022-09-06T15:01:41.157Z,101518.84
2022-09-06T15:04:10.702Z,101524.53
2022-09-06T15:06:40.827Z,101527.47
2022-09-06T15:09:11.612Z,101535.25
2022-09-06T15:11:42.189Z,101529.38
2022-09-06T15:14:15.596Z,101525.47
2022-09-06T15:16:44.097Z,101522.34
2022-09-06T15:19:11.457Z,101517.28
2022-09-06T15:21:38.822Z,101529.00
2022-09-06T15:24:11.575Z,101527.03
2022-09-06T15:26:39.802Z,101522.94
2022-09-06T15:29:07.546Z,101530.16
2022-09-06T15:31:35.048Z,101527.25
2022-09-06T15:34:02.992Z,101522.94
2022-09-06T15:36:30.475Z,101532.50
2022-09-06T15:39:01.225Z,101530.75
2022-09-06T15:41:30.979Z,101538.75
2022-09-06T15:44:05.837Z,101533.09
2022-09-06T15:46:36.470Z,101528.63
2022-09-06T15:49:07.176Z,101535.03
2022-09-06T15:51:35.619Z,101533.72
2022-09-06T15:54:02.957Z,101528.22
2022-09-06T15:56:30.301Z,101529.63
2022-09-06T15:58:57.433Z,101541.34
2022-09-06T16:01:25.890Z,101545.25
2022-09-06T16:04:05.675Z,101547.38
2022-09-06T16:06:42.722Z,101540.16
2022-09-06T16:09:17.689Z,101537.59
2022-09-06T16:11:45.007Z,101539.16
2022-09-06T16:14:14.424Z,101540.34
2022-09-06T16:16:43.506Z,101536.22
2022-09-06T16:19:12.310Z,101536.03
2022-09-06T16:21:42.228Z,101535.84
2022-09-06T16:24:12.253Z,101530.38
2022-09-06T16:26:42.329Z,101535.25
2022-09-06T16:29:11.202Z,101532.13
2022-09-06T16:31:40.502Z,101537.19
2022-09-06T16:34:12.658Z,101533.25
2022-09-06T16:36:40.290Z,101529.13
2022-09-06T16:39:08.156Z,101529.72
2022-09-06T16:41:43.821Z,101517.22
2022-09-06T16:44:17.048Z,101520.88
2022-09-06T16:46:49.994Z,101517.75
2022-09-06T16:49:19.377Z,101518.16
2022-09-06T16:51:48.875Z,101518.34
2022-09-06T16:54:17.163Z,101519.09
2022-09-06T16:56:45.094Z,101525.69
2022-09-06T16:59:15.255Z,101513.97
2022-09-06T17:01:43.575Z,101520.91
2022-09-06T17:04:12.861Z,101519.53
2022-09-06T17:06:44.787Z,101535.66
2022-09-06T17:09:14.866Z,101537.16
2022-09-06T17:11:42.576Z,101529.38
2022-09-06T17:14:10.007Z,101538.09
2022-09-06T17:16:55.801Z,101530.03
2022-09-06T17:19:23.232Z,101531.94
2022-09-06T17:21:50.821Z,101538.34
2022-09-06T17:24:18.075Z,101527.94
2022-09-06T17:26:45.279Z,101538.00
2022-09-06T17:29:12.379Z,101537.53
2022-09-06T17:31:39.564Z,101530.56
2022-09-06T17:34:07.855Z,101538.84
2022-09-06T17:36:35.930Z,101536.25
2022-09-06T17:39:05.364Z,101543.78
2022-09-06T17:41:41.362Z,101547.03
2022-09-06T17:44:11.239Z,101547.56
2022-09-06T17:46:51.917Z,101547.69
2022-09-06T17:49:19.931Z,101557.56
2022-09-06T17:51:47.357Z,101556.00
2022-09-06T17:54:16.030Z,101554.22
2022-09-06T17:56:43.890Z,101560.88
2022-09-06T17:59:14.226Z,101566.50
2022-09-06T18:01:44.033Z,101563.94
2022-09-06T18:04:12.635Z,101563.50
2022-09-06T18:06:41.527Z,101566.75
2022-09-06T18:09:12.952Z,101561.25
2022-09-06T18:11:40.939Z,101569.31
2022-09-06T18:14:16.268Z,101573.38
2022-09-06T18:16:47.349Z,101574.47
2022-09-06T18:19:15.817Z,101583.34
2022-09-06T18:21:43.163Z,101586.84
2022-09-06T18:24:13.778Z,101588.50
2022-09-06T18:26:41.870Z,101583.25
2022-09-06T18:29:13.308Z,101585.72
2022-09-06T18:31:41.642Z,101592.88
2022-09-06T18:34:09.654Z,101600.19
2022-09-06T18:36:38.918Z,101594.25
2022-09-06T18:39:06.610Z,101603.19
2022-09-06T18:41:52.834Z,101604.34
2022-09-06T18:44:20.994Z,101609.72
2022-09-06T18:46:52.089Z,101608.91
2022-09-06T18:49:19.574Z,101612.19
2022-09-06T18:51:47.195Z,101608.03
2022-09-06T18:54:15.093Z,101609.91
2022-09-06T18:56:45.109Z,101620.34
2022-09-06T18:59:14.115Z,101609.25
2022-09-06T19:01:43.302Z,101613.28
2022-09-06T19:04:11.674Z,101601.03
2022-09-06T19:06:41.170Z,101614.13
2022-09-06T19:09:14.943Z,101604.94
2022-09-06T19:11:45.830Z,101611.91
2022-09-06T19:14:13.415Z,101606.63
2022-09-06T19:16:42.308Z,101608.75
2022-09-06T19:19:12.005Z,101611.75
2022-09-06T19:21:42.224Z,101606.88
2022-09-06T19:24:12.001Z,101613.59
2022-09-06T19:26:42.436Z,101601.97
2022-09-06T19:29:14.674Z,101607.78
2022-09-06T19:31:44.014Z,101607.78
2022-09-06T19:34:13.787Z,101611.22
2022-09-06T19:36:43.824Z,101600.38
2022-09-06T19:39:14.622Z,101614.47
2022-09-06T19:41:46.906Z,101614.47
2022-09-06T19:44:16.784Z,101609.31
2022-09-06T19:46:47.006Z,101609.38
2022-09-06T19:49:21.822Z,101611.28
2022-09-06T19:51:50.842Z,101617.34
2022-09-06T19:54:18.334Z,101609.53
2022-09-06T19:56:46.379Z,101596.56
2022-09-06T19:59:14.960Z,101599.81
2022-09-06T20:01:44.158Z,101605.63
2022-09-06T20:04:13.528Z,101600.69
2022-09-06T20:06:41.123Z,101598.13
2022-09-06T20:09:10.154Z,101595.22
2022-09-06T20:11:38.807Z,101600.13
2022-09-06T20:14:06.680Z,101602.44
2022-09-06T20:16:37.018Z,101604.88
2022-09-06T20:19:06.776Z,101601.97
2022-09-06T20:21:34.033Z,101605.97
2022-09-06T20:24:01.277Z,101595.69
2022-09-06T20:26:30.548Z,101608.06
2022-09-06T20:29:02.512Z,101600.94
2022-09-06T20:31:31.637Z,101605.97
2022-09-06T20:34:01.212Z,101602.03
2022-09-06T20:36:28.975Z,101604.47
2022-09-06T20:38:56.347Z,101597.66
2022-09-06T20:41:25.004Z,101598.66
2022-09-06T20:43:57.763Z,101601.78
2022-09-06T20:46:27.464Z,101596.53
2022-09-06T20:48:57.888Z,101603.94
2022-09-06T20:51:26.359Z,101595.75
2022-09-06T20:53:59.644Z,101594.50
2022-09-06T20:56:36.092Z,101593.16
2022-09-06T20:59:06.696Z,101597.66
2022-09-06T21:01:36.046Z,101595.03
2022-09-06T21:04:06.308Z,101601.19
2022-09-06T21:06:35.823Z,101605.34
2022-09-06T21:09:12.434Z,101602.97
2022-09-06T21:11:40.333Z,101609.69
2022-09-06T21:14:08.020Z,101602.41
2022-09-06T21:16:36.686Z,101618.56
2022-09-06T21:19:07.934Z,101598.72
2022-09-06T21:21:35.760Z,101595.56
2022-09-06T21:24:04.947Z,101588.75
2022-09-06T21:26:32.316Z,101588.13
2022-09-06T21:28:59.796Z,101579.59
2022-09-06T21:31:31.248Z,101585.88
2022-09-06T21:34:02.251Z,101587.22
2022-09-06T21:36:32.472Z,101581.66
2022-09-06T21:39:06.304Z,101580.81
2022-09-06T21:41:36.798Z,101576.56
2022-09-06T21:44:05.868Z,101571.13
2022-09-06T21:46:36.537Z,101583.75
2022-09-06T21:49:07.532Z,101586.91
2022-09-06T21:51:35.751Z,101581.09
2022-09-06T21:54:04.815Z,101583.22
2022-09-06T21:56:34.252Z,101567.91
2022-09-06T21:59:02.248Z,101576.41
2022-09-06T22:01:32.106Z,101585.88
2022-09-06T22:04:00.321Z,101581.53
2022-09-06T22:06:29.686Z,101581.84
2022-09-06T22:08:58.399Z,101574.78
2022-09-06T22:11:33.302Z,101576.44
2022-09-06T22:14:10.058Z,101582.16
2022-09-06T22:16:38.580Z,101577.91
2022-09-06T22:19:07.592Z,101583.25
2022-09-06T22:21:35.346Z,101585.63
2022-09-06T22:24:06.024Z,101588.44
2022-09-06T22:26:35.050Z,101583.19
2022-09-06T22:29:05.291Z,101579.75
2022-09-06T22:31:33.840Z,101575.25
2022-09-06T22:34:01.519Z,101562.19
2022-09-06T22:36:28.975Z,101575.09
2022-09-06T22:38:57.756Z,101577.75
2022-09-06T22:41:27.268Z,101596.56
2022-09-06T22:43:54.676Z,101586.25
2022-09-06T22:46:21.999Z,101585.41
2022-09-06T22:48:49.499Z,101590.13
2022-09-06T22:51:16.764Z,101588.25
2022-09-06T22:53:43.988Z,101585.88
2022-09-06T22:56:11.177Z,101585.09
2022-09-06T22:58:38.674Z,101576.66
2022-09-06T23:01:14.781Z,101571.63
2022-09-06T23:03:42.791Z,101580.88
2022-09-06T23:06:10.573Z,101579.06
2022-09-06T23:08:39.427Z,101583.78
2022-09-06T23:11:12.537Z,101577.97
2022-09-06T23:13:43.795Z,101580.06
2022-09-06T23:16:14.618Z,101579.09
2022-09-06T23:18:42.168Z,101582.88
2022-09-06T23:21:12.226Z,101576.16
2022-09-06T23:23:41.684Z,101578.09
2022-09-06T23:26:11.715Z,101580.50
2022-09-06T23:28:39.343Z,101580.69
2022-09-06T23:31:09.116Z,101578.50
2022-09-06T23:33:37.458Z,101580.03
2022-09-06T23:36:06.392Z,101578.94
2022-09-06T23:38:38.008Z,101582.06
2022-09-06T23:41:06.133Z,101581.84
2022-09-06T23:43:33.293Z,101582.88
2022-09-06T23:46:00.692Z,101575.47
2022-09-06T23:48:28.272Z,101581.16
2022-09-06T23:50:55.512Z,101569.56
2022-09-06T23:53:23.176Z,101578.59
2022-09-06T23:55:50.348Z,101579.94
2022-09-06T23:58:17.528Z,101575.44
